x

Frying Pan Shoals, Nc Buoy (41013) Wave Buoy

7:50pm - Fri 3rd Jul 2015 All times are EDT. -4 hours from GMT.

  • Sig Wave height 6.2ft
  • Swell Direction
  • Peak Period 6s
  • Average Period 5s
  • Wind
    22mph, 27mph gusts
  • Sea Temp 79°f
  • Air Temp 79°f
  • Sea Pressure 1014.4mb
  • Frying Pan Shoals, Nc Buoy
  • Frying Pan Shoals, Nc Buoy

More Historic Weather Station data

Upgrade to MSW Pro to gain access to the past 30 days of data for over 8000 Wavebouys and Weather Stations around the globe.

Join Pro

Comparision Forecast

View Surf forecast
   
Fri 07/03 7:50pm 6ft 6s 5s 22 27 mph 1014.4mb 79f 79f
6:50pm 5.5ft 6s 5s 25 29 mph 1014.4mb 80f 78f
5:50pm 5.5ft 6s 5s 22 29 mph 1014.8mb 80f 81f
4:50pm 5ft 6s 5s 22 27 mph 1014.4mb 80f 81f
3:50pm 5ft 6s 5s 18 22 mph 1015mb 80f 81f
2:50pm 5ft 6s 5s 20 25 mph 1015.6mb 79f 81f
1:50pm 6ft 7s 5s 20 25 mph 1016mb 79f 80f
12:50pm 5.5ft 6s 5s 25 29 mph 1016.3mb 79f 80f
11:50am 5.5ft 6s 5s 22 27 mph 1016.5mb 79f 80f
10:50am 5ft 6s 5s 22 27 mph 1016.2mb 79f 80f
9:50am 5ft 6s 5s 22 27 mph 1016.2mb 79f 80f
8:50am 5ft 7s 5s 20 25 mph 1016.3mb 79f 80f
7:50am 5.5ft 6s 5s 22 25 mph 1015.9mb 79f 80f
6:50am 5ft 6s 5s 22 27 mph 1015.5mb 79f 80f
5:50am 5ft 6s 5s 22 27 mph 1015.3mb 79f 79f
4:50am 5ft 7s 5s 22 27 mph 1015.1mb 79f 79f
3:50am 5ft 7s 5s 18 22 mph 1014.7mb 79f 78f
2:50am 5.5ft 7s 5s 16 18 mph 1014.6mb 79f 78f
1:50am 5.5ft 7s 5s 13 18 mph 1014mb 80f 77f
12:50am 6ft 7s 5s 18 22 mph 1013.8mb 80f 77f
Thu 07/02 11:50pm 5.5ft 6s 5s 16 18 mph 1014.3mb 80f 76f
10:50pm 6ft 6s 5s 25 29 mph 1014.7mb 80f 82f
9:50pm 5ft 6s 5s 25 29 mph 1014.5mb 80f 82f
8:50pm 4.5ft 6s 4s 25 29 mph 1014.5mb 80f 82f
7:50pm 4.5ft 5s 4s 22 27 mph 1013.8mb 80f 82f
6:50pm 4.5ft 5s 4s 20 25 mph 1013.5mb 80f 82f
5:50pm 4ft 6s 4s 22 25 mph 1013.6mb 80f 82f
4:50pm 4ft 6s 4s 20 22 mph 1014.2mb 80f 82f
3:50pm 4ft 6s 4s 18 22 mph 1015.3mb 80f 82f
2:50pm 4.5ft 6s 5s 18 20 mph 1016mb 80f 82f
1:50pm 4.5ft 6s 4s 18 22 mph 1016.1mb 80f 81f
12:50pm 4ft 6s 5s 20 25 mph 1016.3mb 80f 81f
11:50am 4ft 6s 4s 20 25 mph 1016.3mb 80f 81f
10:50am 3.5ft 6s 4s 20 25 mph 1015.8mb 80f 81f
9:50am 3.5ft 6s 4s 18 22 mph 1015.7mb 80f 81f
8:50am 4ft 6s 4s 18 22 mph 1015.8mb 80f 82f
7:50am 3.5ft 6s 4s 18 20 mph 1015.5mb 80f 81f
6:50am 4ft 5s 4s 16 18 mph 1015mb 80f 81f
5:50am 4ft 6s 5s 13 16 mph 1014.6mb 80f 81f
4:50am 4.5ft 6s 5s 16 18 mph 1014.9mb 80f 81f
3:50am 4.5ft 6s 5s 18 20 mph 1015mb 80f 81f
2:50am 4.5ft 7s 5s 16 18 mph 1015.2mb 80f 82f
1:50am 4.5ft 6s 5s 18 20 mph 1015.9mb 80f 82f
12:50am 4.5ft 7s 5s 18 22 mph 1016.3mb 80f 82f
Wed 07/01 11:50pm 4.5ft 7s 5s 18 22 mph 1016.6mb 80f 82f
10:50pm 5ft 8s 5s 18 22 mph 1016.7mb 80f 81f
9:50pm 4.5ft 6s 5s 18 22 mph 1016mb 80f 81f
8:50pm 5ft 6s 5s 20 22 mph 1015.6mb 80f 81f
7:50pm 5ft 6s 5s 22 27 mph 1015.3mb 80f 81f
6:50pm 5ft 6s 5s 18 20 mph 1014.8mb 80f 81f
5:50pm 5ft 6s 5s 18 20 mph 1015mb 80f 80f
4:50pm 5ft 6s 5s 18 22 mph 1015mb 80f 80f
3:50pm 4.5ft 6s 5s 18 22 mph 1015.7mb 80f 80f
2:50pm 5ft 7s 5s 18 20 mph 1016mb 80f 79f
1:50pm 4.5ft 6s 5s 18 20 mph 1016.2mb 80f 79f
12:50pm 4.5ft 6s 5s 18 22 mph 1016.4mb 80f 79f
11:50am 4.5ft 5s 5s 20 22 mph 1016.3mb 80f 80f
10:50am 5ft 5s 5s 20 25 mph 1016.1mb 80f 80f
9:50am 4.5ft 6s 4s 20 22 mph 1016.1mb 80f 80f
8:50am 5ft 6s 5s 20 25 mph 1015.9mb 80f 80f
7:50am 4.5ft 5s 4s 20 25 mph 1015.7mb 80f 80f
6:50am 5ft 5s 5s 20 25 mph 1015.4mb 80f 80f
5:50am 5ft 6s 5s 20 25 mph 1015.3mb 80f 80f
4:50am 5ft 6s 5s 22 27 mph 1015.4mb 80f 80f
3:50am 5ft 6s 5s 20 25 mph 1015.3mb 80f 81f
2:50am 5ft 5s 5s 22 27 mph 1014.9mb 80f 82f
1:50am 5ft 5s 5s 20 22 mph 1015mb 80f 82f
12:50am 4.5ft 5s 5s 20 22 mph 1015.4mb 80f 82f
Tue 06/30 11:50pm 4.5ft 5s 5s 20 22 mph 1015.9mb 80f 82f
10:50pm 4.5ft 5s 5s 18 22 mph 1015.8mb 80f 83f
9:50pm 4.5ft 5s 5s 20 25 mph 1015.4mb 80f 83f
8:50pm 4.5ft 4s 4s 22 27 mph 1015.2mb 80f 83f
7:50pm 4ft 4s 4s 20 25 mph 1015.2mb 80f 83f
6:50pm 3.5ft 4s 4s 22 25 mph 1015.2mb 80f 83f
5:50pm 3.5ft 7s 4s 20 22 mph 1015.1mb 80f 83f
4:50pm 3.5ft 5s 5s 18 20 mph 1014.7mb 81f 83f
3:50pm 3.5ft 6s 4s 13 16 mph 1015.5mb 80f 82f
2:50pm 3.5ft 6s 4s 16
mph
1016mb 80f 82f
1:50pm 3.5ft 6s 5s 13 16 mph 1016.5mb 80f 82f
12:50pm 4ft 5s 5s 13 16 mph 1017mb 80f 81f
11:50am 3.5ft 6s 5s 13 16 mph 1017.1mb 80f 81f
10:50am 3.5ft 7s 5s 13 16 mph 1017.1mb 80f 81f
9:50am 3.5ft 7s 5s 16 18 mph 1017mb 80f 81f
8:50am 3.5ft 5s 5s 13 18 mph 1016.8mb 80f 81f
7:50am 4ft 7s 5s 16 18 mph 1016.1mb 80f 81f
6:50am 4ft 7s 5s 18 20 mph 1015.9mb 80f 81f
5:50am 4ft 7s 4s 16 18 mph 1015.4mb 80f 81f
4:50am 4.5ft 5s 5s 16 20 mph 1015.2mb 80f 81f
3:50am 4.5ft 7s 5s 18 22 mph 1015mb 80f 81f
2:50am 4.5ft 7s 5s 20 22 mph 1014.8mb 80f 81f
1:50am 4.5ft 7s 5s 18 20 mph 1015.4mb 80f 82f